createdAt,value
2023-04-06T00:02:19.167Z,97261.59
2023-04-06T00:04:47.380Z,97258.65
2023-04-06T00:07:15.338Z,97258.81
2023-04-06T00:09:43.305Z,97254.85
2023-04-06T00:12:11.271Z,97253.46
2023-04-06T00:14:39.216Z,97249.63
2023-04-06T00:17:08.260Z,97250.83
2023-04-06T00:19:36.402Z,97245.46
2023-04-06T00:22:04.483Z,97241.16
2023-04-06T00:24:32.604Z,97239.25
2023-04-06T00:27:01.021Z,97237.52
2023-04-06T00:29:29.392Z,97229.73
2023-04-06T00:31:57.424Z,97235.06
2023-04-06T00:34:25.893Z,97233.51
2023-04-06T00:36:53.836Z,97234.33
2023-04-06T00:39:22.196Z,97231.58
2023-04-06T00:41:54.739Z,97226.40
2023-04-06T00:44:23.525Z,97226.40
2023-04-06T00:46:51.608Z,97226.39
2023-04-06T00:49:19.743Z,97221.20
2023-04-06T00:51:48.140Z,97220.02
2023-04-06T00:54:16.736Z,97219.16
2023-04-06T00:56:45.723Z,97219.17
2023-04-06T00:59:14.109Z,97215.76
2023-04-06T01:01:42.537Z,97213.69
2023-04-06T01:04:24.228Z,97214.02
2023-04-06T01:06:53.902Z,97211.04
2023-04-06T01:09:25.903Z,97210.52
2023-04-06T01:11:54.361Z,97208.91
2023-04-06T01:14:25.495Z,97202.86
2023-04-06T01:17:01.411Z,97203.38
2023-04-06T01:19:32.692Z,97202.33
2023-04-06T01:22:01.184Z,97200.05
2023-04-06T01:24:34.650Z,97200.22
2023-04-06T01:27:21.570Z,97197.80
2023-04-06T01:30:17.473Z,97197.12
2023-04-06T01:32:51.954Z,97193.83
2023-04-06T01:35:28.980Z,97187.23
2023-04-06T01:38:09.662Z,97182.09
2023-04-06T01:40:38.068Z,97174.34
2023-04-06T01:43:06.197Z,97174.33
2023-04-06T01:45:39.273Z,97171.59
2023-04-06T01:48:19.880Z,97163.45
2023-04-06T01:50:48.006Z,97160.20
2023-04-06T01:53:19.658Z,97154.19
2023-04-06T01:55:48.623Z,97153.34
2023-04-06T01:58:26.644Z,97152.11
2023-04-06T02:00:55.559Z,97147.12
2023-04-06T02:03:23.913Z,97142.82
2023-04-06T02:05:55.119Z,97145.38
2023-04-06T02:08:29.512Z,97141.56
2023-04-06T02:10:57.466Z,97138.98
2023-04-06T02:13:31.505Z,97135.20
2023-04-06T02:15:59.919Z,97135.02
2023-04-06T02:18:29.413Z,97133.80
2023-04-06T02:20:57.518Z,97132.42
2023-04-06T02:23:25.692Z,97127.77
2023-04-06T02:25:53.667Z,97127.78
2023-04-06T02:28:21.715Z,97125.38
2023-04-06T02:30:49.748Z,97125.02
2023-04-06T02:33:18.311Z,97122.27
2023-04-06T02:35:48.029Z,97122.95
2023-04-06T02:38:16.196Z,97123.98
2023-04-06T02:40:44.296Z,97124.30
2023-04-06T02:43:21.744Z,97121.02
2023-04-06T02:45:51.876Z,97120.16
2023-04-06T02:48:21.062Z,97119.96
2023-04-06T02:50:49.105Z,97122.57
2023-04-06T02:53:17.209Z,97123.94
2023-04-06T02:55:45.512Z,97122.05
2023-04-06T02:58:13.551Z,97124.96
2023-04-06T03:00:46.505Z,97119.58
2023-04-06T03:03:15.002Z,97125.43
2023-04-06T03:05:44.261Z,97123.90
2023-04-06T03:08:12.654Z,97122.69
2023-04-06T03:10:45.644Z,97119.93
2023-04-06T03:13:13.967Z,97117.35
2023-04-06T03:15:48.900Z,97113.89
2023-04-06T03:18:24.265Z,97112.34
2023-04-06T03:20:56.478Z,97110.48
2023-04-06T03:23:28.559Z,97117.89
2023-04-06T03:25:59.747Z,97117.92
2023-04-06T03:28:27.776Z,97118.78
2023-04-06T03:31:01.595Z,97116.87
2023-04-06T03:33:56.415Z,97116.36
2023-04-06T03:36:32.045Z,97116.35
2023-04-06T03:39:00.575Z,97111.52
2023-04-06T03:41:28.721Z,97110.64
2023-04-06T03:44:01.665Z,97114.55
2023-04-06T03:46:29.688Z,97110.05
2023-04-06T03:48:59.153Z,97111.42
2023-04-06T03:51:28.785Z,97110.89
2023-04-06T03:53:56.790Z,97110.88
2023-04-06T03:56:24.827Z,97108.77
2023-04-06T03:58:52.854Z,97105.48
2023-04-06T04:01:22.599Z,97111.09
2023-04-06T04:03:51.887Z,97110.73
2023-04-06T04:06:20.052Z,97113.81
2023-04-06T04:08:48.006Z,97115.03
2023-04-06T04:11:17.084Z,97118.66
2023-04-06T04:13:46.610Z,97117.09
2023-04-06T04:16:15.247Z,97115.52
2023-04-06T04:18:44.852Z,97113.61
2023-04-06T04:21:12.935Z,97114.28
2023-04-06T04:23:41.129Z,97113.56
2023-04-06T04:26:10.101Z,97115.76
2023-04-06T04:28:38.301Z,97118.01
2023-04-06T04:31:06.497Z,97124.20
2023-04-06T04:33:35.924Z,97120.86
2023-04-06T04:36:08.081Z,97124.59
2023-04-06T04:38:40.751Z,97123.98
2023-04-06T04:41:08.985Z,97124.98
2023-04-06T04:43:37.895Z,97130.56
2023-04-06T04:46:06.832Z,97132.13
2023-04-06T04:48:45.373Z,97131.02
2023-04-06T04:51:13.996Z,97129.33
2023-04-06T04:54:08.181Z,97127.05
2023-04-06T04:56:36.485Z,97131.59
2023-04-06T04:59:31.074Z,97139.09
2023-04-06T05:02:08.451Z,97137.17
2023-04-06T05:04:46.151Z,97136.37
2023-04-06T05:07:19.817Z,97138.46
2023-04-06T05:09:48.573Z,97141.71
2023-04-06T05:12:16.894Z,97141.23
2023-04-06T05:15:06.154Z,97139.91
2023-04-06T05:17:35.033Z,97145.41
2023-04-06T05:20:04.318Z,97147.58
2023-04-06T05:22:35.720Z,97146.56
2023-04-06T05:25:08.208Z,97147.98
2023-04-06T05:27:36.436Z,97149.48
2023-04-06T05:30:09.154Z,97148.11
2023-04-06T05:32:41.652Z,97150.48
2023-04-06T05:35:10.203Z,97150.15
2023-04-06T05:37:38.820Z,97150.90
2023-04-06T05:40:09.395Z,97151.01
2023-04-06T05:42:42.273Z,97146.13
2023-04-06T05:45:17.706Z,97142.05
2023-04-06T05:47:47.038Z,97142.85
2023-04-06T05:50:23.706Z,97145.05
2023-04-06T05:52:52.799Z,97141.77
2023-04-06T05:55:22.186Z,97139.83
2023-04-06T05:57:55.049Z,97137.90
2023-04-06T06:00:23.728Z,97132.56
2023-04-06T06:02:56.698Z,97128.83
2023-04-06T06:05:27.594Z,97134.16
2023-04-06T06:07:59.961Z,97130.64
2023-04-06T06:10:28.316Z,97128.63
2023-04-06T06:12:57.233Z,97127.63
2023-04-06T06:15:26.018Z,97121.96
2023-04-06T06:17:54.577Z,97123.30
2023-04-06T06:20:23.182Z,97118.11
2023-04-06T06:22:51.732Z,97120.65
2023-04-06T06:25:22.835Z,97117.29
2023-04-06T06:27:51.283Z,97114.31
2023-04-06T06:30:22.926Z,97113.45
2023-04-06T06:32:52.480Z,97111.92
2023-04-06T06:35:21.155Z,97110.14
2023-04-06T06:37:51.716Z,97107.91
2023-04-06T06:40:25.399Z,97110.35
2023-04-06T06:42:54.897Z,97106.98
2023-04-06T06:45:35.166Z,97103.95
2023-04-06T06:48:03.655Z,97104.13
2023-04-06T06:50:32.207Z,97107.44
2023-04-06T06:53:00.400Z,97107.93
2023-04-06T06:55:28.925Z,97109.15
2023-04-06T06:57:57.150Z,97111.63
2023-04-06T07:00:25.727Z,97115.05
2023-04-06T07:02:54.607Z,97113.52
2023-04-06T07:05:27.491Z,97111.45
2023-04-06T07:07:58.063Z,97115.40
2023-04-06T07:10:28.304Z,97123.85
2023-04-06T07:12:56.652Z,97122.66
2023-04-06T07:15:24.891Z,97128.48
2023-04-06T07:17:53.515Z,97122.20
2023-04-06T07:20:21.901Z,97117.05
2023-04-06T07:22:50.442Z,97121.36
2023-04-06T07:25:18.664Z,97121.54
2023-04-06T07:27:47.058Z,97117.67
2023-04-06T07:30:15.866Z,97115.81
2023-04-06T07:32:44.268Z,97118.04
2023-04-06T07:35:12.599Z,97119.17
2023-04-06T07:37:41.210Z,97118.90
2023-04-06T07:40:09.927Z,97123.61
2023-04-06T07:42:39.255Z,97120.11
2023-04-06T07:45:08.876Z,97124.02
2023-04-06T07:47:37.138Z,97120.52
2023-04-06T07:50:06.803Z,97117.96
2023-04-06T07:52:38.232Z,97118.66
2023-04-06T07:55:07.723Z,97124.75
2023-04-06T07:57:36.332Z,97117.26
2023-04-06T08:00:05.362Z,97117.92
2023-04-06T08:02:40.671Z,97118.29
2023-04-06T08:05:09.934Z,97116.38
2023-04-06T08:07:38.455Z,97113.54
2023-04-06T08:10:06.914Z,97116.67
2023-04-06T08:12:36.091Z,97117.05
2023-04-06T08:15:05.077Z,97114.69
2023-04-06T08:17:35.206Z,97107.15
2023-04-06T08:20:04.903Z,97107.04
2023-04-06T08:22:33.258Z,97108.59
2023-04-06T08:25:05.222Z,97114.38
2023-04-06T08:27:33.602Z,97104.42
2023-04-06T08:30:02.218Z,97105.45
2023-04-06T08:32:31.053Z,97113.31
2023-04-06T08:35:00.140Z,97112.32
2023-04-06T08:37:28.756Z,97110.89
2023-04-06T08:39:56.938Z,97107.48
2023-04-06T08:42:27.808Z,97113.48
2023-04-06T08:44:56.901Z,97107.98
2023-04-06T08:47:25.770Z,97115.61
2023-04-06T08:49:55.401Z,97113.29
2023-04-06T08:52:25.399Z,97112.17
2023-04-06T08:54:53.976Z,97109.55
2023-04-06T08:57:22.584Z,97111.16
2023-04-06T08:59:52.442Z,97107.00
2023-04-06T09:02:21.752Z,97113.55
2023-04-06T09:04:54.798Z,97110.83
2023-04-06T09:07:23.825Z,97107.48
2023-04-06T09:09:52.966Z,97112.95
2023-04-06T09:12:29.181Z,97114.86
2023-04-06T09:14:58.973Z,97113.94
2023-04-06T09:17:33.936Z,97120.91
2023-04-06T09:20:04.347Z,97109.29
2023-04-06T09:22:40.431Z,97109.89
2023-04-06T09:25:11.260Z,97107.55
2023-04-06T09:27:40.075Z,97107.34
2023-04-06T09:30:15.670Z,97098.78
2023-04-06T09:32:50.263Z,97098.94
2023-04-06T09:35:21.214Z,97102.19
2023-04-06T09:37:53.680Z,97107.73
2023-04-06T09:40:23.504Z,97104.33
2023-04-06T09:42:58.631Z,97104.02
2023-04-06T09:45:31.690Z,97100.79
2023-04-06T09:48:01.056Z,97102.34
2023-04-06T09:50:31.187Z,97103.37
2023-04-06T09:53:01.415Z,97105.95
2023-04-06T09:55:36.905Z,97100.46
2023-04-06T09:58:08.279Z,97094.31
2023-04-06T10:00:48.821Z,97103.98
2023-04-06T10:04:03.706Z,97105.88
2023-04-06T10:06:36.559Z,97093.52
2023-04-06T10:09:09.307Z,97092.86
2023-04-06T10:11:38.305Z,97087.20
2023-04-06T10:14:07.741Z,97088.42
2023-04-06T10:16:37.107Z,97090.48
2023-04-06T10:19:17.964Z,97085.83
2023-04-06T10:21:51.249Z,97084.63
2023-04-06T10:24:19.873Z,97088.24
2023-04-06T10:27:03.537Z,97086.52
2023-04-06T10:29:52.301Z,97082.89
2023-04-06T10:32:20.687Z,97086.19
2023-04-06T10:34:49.177Z,97087.55
2023-04-06T10:37:20.129Z,97087.39
2023-04-06T10:39:59.517Z,97082.20
2023-04-06T10:42:39.459Z,97082.73
2023-04-06T10:45:09.062Z,97082.90
2023-04-06T10:47:42.216Z,97076.83
2023-04-06T10:50:16.440Z,97079.94
2023-04-06T10:52:48.696Z,97080.98
2023-04-06T10:55:18.158Z,97086.19
2023-04-06T10:57:47.969Z,97086.87
2023-04-06T11:00:17.192Z,97086.84
2023-04-06T11:02:45.482Z,97089.42
2023-04-06T11:05:16.631Z,97086.86
2023-04-06T11:07:45.395Z,97084.29
2023-04-06T11:10:19.335Z,97082.38
2023-04-06T11:12:54.966Z,97082.90
2023-04-06T11:15:23.907Z,97082.71
2023-04-06T11:17:52.126Z,97086.35
2023-04-06T11:20:20.840Z,97086.35
2023-04-06T11:22:53.498Z,97081.52
2023-04-06T11:25:21.888Z,97081.52
2023-04-06T11:27:50.484Z,97082.39
2023-04-06T11:30:19.179Z,97086.01
2023-04-06T11:32:47.570Z,97081.70
2023-04-06T11:35:25.824Z,97087.05
2023-04-06T11:37:53.958Z,97082.90
2023-04-06T11:40:23.802Z,97087.39
2023-04-06T11:42:56.615Z,97089.45
2023-04-06T11:45:25.175Z,97089.98
2023-04-06T11:48:01.685Z,97085.84
2023-04-06T11:50:36.785Z,97090.48
2023-04-06T11:53:05.244Z,97094.04
2023-04-06T11:55:39.263Z,97101.10
2023-04-06T11:58:08.212Z,97103.38
2023-04-06T12:00:38.228Z,97100.89
2023-04-06T12:03:06.507Z,97097.48
2023-04-06T12:05:35.101Z,97093.50
2023-04-06T12:08:03.788Z,97097.02
2023-04-06T12:10:32.530Z,97094.96
2023-04-06T12:13:00.875Z,97092.38
2023-04-06T12:15:29.042Z,97091.52
2023-04-06T12:17:57.240Z,97093.77
2023-04-06T12:20:27.201Z,97094.30
2023-04-06T12:22:56.365Z,97096.36
2023-04-06T12:25:24.608Z,97098.94
2023-04-06T12:27:52.889Z,97101.70
2023-04-06T12:30:21.353Z,97099.98
2023-04-06T12:32:51.212Z,97098.42
2023-04-06T12:35:20.081Z,97103.77
2023-04-06T12:37:48.390Z,97105.00
2023-04-06T12:40:16.704Z,97108.61
2023-04-06T12:42:46.909Z,97114.09
2023-04-06T12:45:15.661Z,97117.54
2023-04-06T12:47:43.818Z,97114.75
2023-04-06T12:50:12.364Z,97118.02
2023-04-06T12:52:40.670Z,97119.54
2023-04-06T12:55:09.859Z,97123.95
2023-04-06T12:57:38.620Z,97118.45
2023-04-06T13:00:09.516Z,97121.23
2023-04-06T13:02:38.040Z,97121.00
2023-04-06T13:05:06.823Z,97120.16
2023-04-06T13:07:35.046Z,97120.63
2023-04-06T13:10:03.389Z,97117.48
2023-04-06T13:12:31.582Z,97117.84
2023-04-06T13:14:59.837Z,97118.92
2023-04-06T13:17:29.325Z,97125.40
2023-04-06T13:19:57.756Z,97120.73
2023-04-06T13:22:25.918Z,97123.43
2023-04-06T13:24:54.235Z,97125.68
2023-04-06T13:27:22.461Z,97122.17
2023-04-06T13:29:51.105Z,97124.06
2023-04-06T13:32:19.374Z,97125.80
2023-04-06T13:34:49.847Z,97126.81
2023-04-06T13:37:18.156Z,97123.89
2023-04-06T13:39:46.272Z,97125.59
2023-04-06T13:42:14.325Z,97130.20
2023-04-06T13:48:52.363Z,97127.48
2023-04-06T13:51:21.444Z,97123.55
2023-04-06T13:53:53.702Z,97124.40
2023-04-06T13:56:22.183Z,97124.39
2023-04-06T13:58:50.424Z,97123.70
2023-04-06T14:01:18.960Z,97122.85
2023-04-06T14:03:49.074Z,97125.77
2023-04-06T14:08:48.370Z,97126.17
2023-04-06T14:11:17.386Z,97126.17
2023-04-06T14:13:45.785Z,97129.13
2023-04-06T14:16:14.257Z,97134.35
2023-04-06T14:18:42.415Z,97137.61
2023-04-06T14:21:11.061Z,97139.69
2023-04-06T14:23:40.483Z,97132.14
2023-04-06T14:26:09.530Z,97139.88
2023-04-06T14:28:38.323Z,97144.56
2023-04-06T14:31:15.780Z,97140.42
2023-04-06T14:33:44.386Z,97140.27
2023-04-06T14:36:12.923Z,97141.55
2023-04-06T14:38:42.288Z,97145.44
2023-04-06T14:41:23.368Z,97142.29
2023-04-06T14:43:53.837Z,97139.24
2023-04-06T14:46:21.805Z,97138.48
2023-04-06T14:48:50.067Z,97138.94
2023-04-06T14:51:18.299Z,97141.88
2023-04-06T14:53:46.703Z,97135.83
2023-04-06T14:56:21.930Z,97140.36
2023-04-06T14:58:52.077Z,97141.39
2023-04-06T15:01:23.272Z,97148.71
2023-04-06T15:03:51.623Z,97148.54
2023-04-06T15:06:21.675Z,97149.60
2023-04-06T15:08:51.053Z,97152.04
2023-04-06T15:11:19.240Z,97152.08
2023-04-06T15:13:47.655Z,97145.11
2023-04-06T15:16:15.940Z,97144.63
2023-04-06T15:18:44.989Z,97146.20
2023-04-06T15:21:13.354Z,97149.11
2023-04-06T15:23:41.657Z,97148.41
2023-04-06T15:26:09.709Z,97150.45
2023-04-06T15:28:37.831Z,97152.86
2023-04-06T15:31:20.717Z,97149.91
2023-04-06T15:33:57.134Z,97149.01
2023-04-06T15:36:30.944Z,97151.05
2023-04-06T15:38:59.248Z,97150.58
2023-04-06T15:41:30.257Z,97151.71
2023-04-06T15:43:58.838Z,97151.91
2023-04-06T15:46:30.745Z,97149.00
2023-04-06T15:48:58.897Z,97151.42
2023-04-06T15:51:27.738Z,97152.85
2023-04-06T15:53:55.855Z,97156.66
2023-04-06T15:56:23.838Z,97154.59
2023-04-06T15:58:52.081Z,97160.89
2023-04-06T16:01:20.567Z,97162.94
2023-04-06T16:03:49.241Z,97163.31
2023-04-06T16:06:17.785Z,97167.91
2023-04-06T16:08:46.469Z,97165.44
2023-04-06T16:11:14.752Z,97170.61
2023-04-06T16:13:45.087Z,97170.80
2023-04-06T16:16:16.143Z,97177.06
2023-04-06T16:18:44.460Z,97182.36
2023-04-06T16:21:18.905Z,97188.19
2023-04-06T16:23:47.934Z,97189.09
2023-04-06T16:26:21.907Z,97189.95
2023-04-06T16:28:51.848Z,97193.67
2023-04-06T16:31:25.257Z,97194.78
2023-04-06T16:33:56.324Z,97200.08
2023-04-06T16:36:27.542Z,97200.02
2023-04-06T16:38:59.790Z,97199.13
2023-04-06T16:41:28.610Z,97199.06
2023-04-06T16:43:57.670Z,97199.64
2023-04-06T16:46:38.400Z,97201.63
2023-04-06T16:49:07.406Z,97200.98
2023-04-06T16:51:37.379Z,97199.98
2023-04-06T16:54:06.150Z,97200.29
2023-04-06T16:56:34.296Z,97198.04
2023-04-06T16:59:02.321Z,97196.73
2023-04-06T17:01:30.987Z,97204.04
2023-04-06T17:03:59.734Z,97211.34
2023-04-06T17:06:27.876Z,97213.73
2023-04-06T17:08:55.825Z,97212.01
2023-04-06T17:11:28.545Z,97212.20
2023-04-06T17:14:00.826Z,97213.13
2023-04-06T17:16:29.251Z,97211.41
2023-04-06T17:18:58.255Z,97215.19
2023-04-06T17:21:26.623Z,97216.55
2023-04-06T17:23:55.141Z,97215.20
2023-04-06T17:26:23.154Z,97219.15
2023-04-06T17:28:51.035Z,97217.25
2023-04-06T17:31:19.059Z,97214.88
2023-04-06T17:33:48.023Z,97216.94
2023-04-06T17:36:16.653Z,97221.27
2023-04-06T17:38:46.074Z,97226.42
2023-04-06T17:41:14.205Z,97231.94
2023-04-06T17:43:42.425Z,97232.49
2023-04-06T17:46:10.996Z,97235.66
2023-04-06T17:48:39.299Z,97234.73
2023-04-06T17:51:07.117Z,97236.29
2023-04-06T17:53:37.144Z,97234.46
2023-04-06T17:56:05.751Z,97236.04
2023-04-06T17:58:33.970Z,97234.29
2023-04-06T18:01:08.628Z,97233.98
2023-04-06T18:03:38.472Z,97239.80
2023-04-06T18:06:16.081Z,97241.33
2023-04-06T18:08:44.359Z,97243.75
2023-04-06T18:11:18.767Z,97247.64
2023-04-06T18:13:47.645Z,97248.29
2023-04-06T18:16:17.796Z,97246.90
2023-04-06T18:18:46.223Z,97250.87
2023-04-06T18:21:14.353Z,97255.15
2023-04-06T18:23:42.172Z,97256.55
2023-04-06T18:26:18.016Z,97256.58
2023-04-06T18:28:47.741Z,97255.58
2023-04-06T18:31:16.254Z,97257.84
2023-04-06T18:33:45.158Z,97261.45
2023-04-06T18:36:14.872Z,97262.88
2023-04-06T18:38:45.643Z,97263.95
2023-04-06T18:41:14.471Z,97259.63
2023-04-06T18:43:42.692Z,97262.14
2023-04-06T18:46:16.091Z,97259.04
2023-04-06T18:48:44.342Z,97261.80
2023-04-06T18:51:12.590Z,97259.22
2023-04-06T18:53:41.165Z,97263.48
2023-04-06T18:56:19.997Z,97258.80
2023-04-06T18:58:49.474Z,97263.59
2023-04-06T19:01:22.123Z,97263.52
2023-04-06T19:03:51.829Z,97259.90
2023-04-06T19:06:20.126Z,97256.80
2023-04-06T19:08:48.922Z,97256.45
2023-04-06T19:11:17.367Z,97256.14
2023-04-06T19:13:50.205Z,97252.76
2023-04-06T19:16:22.210Z,97252.08
2023-04-06T19:18:50.548Z,97254.67
2023-04-06T19:21:20.540Z,97252.33
2023-04-06T19:23:50.682Z,97251.28
2023-04-06T19:26:19.954Z,97250.70
2023-04-06T19:28:48.820Z,97250.02
2023-04-06T19:31:18.951Z,97249.48
2023-04-06T19:33:47.333Z,97247.95
2023-04-06T19:36:16.065Z,97244.52
2023-04-06T19:38:44.222Z,97247.18
2023-04-06T19:41:13.038Z,97246.25
2023-04-06T19:43:41.062Z,97247.95
2023-04-06T19:46:09.437Z,97247.71
2023-04-06T19:48:37.477Z,97246.02
2023-04-06T19:51:05.485Z,97248.10
2023-04-06T19:53:33.692Z,97246.08
2023-04-06T19:56:01.704Z,97244.74
2023-04-06T19:58:29.711Z,97244.95
2023-04-06T20:00:57.749Z,97247.07
2023-04-06T20:03:25.906Z,97247.44
2023-04-06T20:05:54.378Z,97247.59
2023-04-06T20:08:22.875Z,97249.50
2023-04-06T20:10:52.225Z,97249.34
2023-04-06T20:13:21.096Z,97252.39
2023-04-06T20:15:49.217Z,97256.16
2023-04-06T20:18:17.078Z,97257.30
2023-04-06T20:20:45.083Z,97257.23
2023-04-06T20:23:13.152Z,97256.55
2023-04-06T20:25:41.316Z,97254.98
2023-04-06T20:28:10.151Z,97252.35
2023-04-06T20:30:38.147Z,97252.17
2023-04-06T20:33:06.424Z,97247.72
2023-04-06T20:35:35.401Z,97248.27
2023-04-06T20:38:03.709Z,97249.51
2023-04-06T20:40:31.862Z,97249.73
2023-04-06T20:43:00.131Z,97247.73
2023-04-06T20:45:28.042Z,97247.63
2023-04-06T20:47:56.184Z,97248.33
2023-04-06T20:50:24.976Z,97248.34
2023-04-06T20:52:54.214Z,97249.08
2023-04-06T20:55:23.312Z,97252.70
2023-04-06T20:57:52.335Z,97252.20
2023-04-06T21:00:21.108Z,97250.83
2023-04-06T21:02:49.413Z,97251.82
2023-04-06T21:05:18.146Z,97253.55
2023-04-06T21:07:46.670Z,97252.51
2023-04-06T21:10:15.380Z,97253.52
2023-04-06T21:12:43.376Z,97252.43
2023-04-06T21:15:11.514Z,97255.55
2023-04-06T21:17:39.591Z,97254.67
2023-04-06T21:20:09.224Z,97254.11
2023-04-06T21:22:37.181Z,97257.17
2023-04-06T21:25:05.608Z,97253.49
2023-04-06T21:27:33.481Z,97253.52
2023-04-06T21:30:01.469Z,97253.30
2023-04-06T21:32:29.360Z,97256.58
2023-04-06T21:34:57.401Z,97257.98
2023-04-06T21:37:25.335Z,97257.42
2023-04-06T21:39:56.285Z,97256.60
2023-04-06T21:42:25.075Z,97255.55
2023-04-06T21:44:53.087Z,97256.23
2023-04-06T21:47:20.981Z,97254.81
2023-04-06T21:49:49.003Z,97257.73
2023-04-06T21:52:16.857Z,97255.95
2023-04-06T21:54:44.711Z,97253.71
2023-04-06T21:57:14.084Z,97253.40
2023-04-06T21:59:41.922Z,97255.64
2023-04-06T22:02:09.976Z,97258.02
2023-04-06T22:04:38.108Z,97257.13
2023-04-06T22:07:06.503Z,97256.41
2023-04-06T22:09:34.319Z,97257.91
2023-04-06T22:12:02.396Z,97260.31
2023-04-06T22:14:31.134Z,97262.02
2023-04-06T22:16:59.370Z,97260.46
2023-04-06T22:19:27.375Z,97263.87
2023-04-06T22:21:55.435Z,97264.70
2023-04-06T22:24:23.350Z,97261.94
2023-04-06T22:26:51.232Z,97263.83
2023-04-06T22:29:19.152Z,97264.02
2023-04-06T22:31:47.368Z,97267.37
2023-04-06T22:34:15.948Z,97266.08
2023-04-06T22:36:44.179Z,97264.28
2023-04-06T22:39:12.158Z,97263.64
2023-04-06T22:41:40.100Z,97262.29
2023-04-06T22:44:08.141Z,97259.54
2023-04-06T22:46:36.075Z,97258.54
2023-04-06T22:49:04.383Z,97257.23
2023-04-06T22:51:33.034Z,97257.10
2023-04-06T22:54:01.218Z,97257.59
2023-04-06T22:56:29.237Z,97254.07
2023-04-06T22:58:57.298Z,97251.95
2023-04-06T23:01:25.230Z,97250.52
2023-04-06T23:03:53.145Z,97249.39
2023-04-06T23:06:21.127Z,97250.20
2023-04-06T23:08:48.937Z,97249.31
2023-04-06T23:11:16.889Z,97244.81
2023-04-06T23:13:44.787Z,97245.95
2023-04-06T23:16:12.808Z,97247.42
2023-04-06T23:18:41.197Z,97245.48
2023-04-06T23:21:09.102Z,97245.32
2023-04-06T23:23:37.229Z,97247.76
2023-04-06T23:26:05.559Z,97247.61
2023-04-06T23:28:33.725Z,97248.69
2023-04-06T23:31:01.602Z,97248.56
2023-04-06T23:33:29.627Z,97249.81
2023-04-06T23:35:57.576Z,97247.29
2023-04-06T23:38:25.634Z,97248.34
2023-04-06T23:40:53.496Z,97244.40
2023-04-06T23:43:21.527Z,97243.02
2023-04-06T23:45:49.460Z,97245.42
2023-04-06T23:48:17.406Z,97243.63
2023-04-06T23:50:45.449Z,97245.26
2023-04-06T23:53:13.460Z,97245.55
2023-04-06T23:55:41.335Z,97247.95
2023-04-06T23:58:09.286Z,97245.66
